Time;durP1;ratioP1;P1;durP2;ratioP2;P2;SDS_P1;SDS_P2;PMS_P1;PMS_P2;Temp;Humidity;BMP_temperature;BMP_pressure;BME280_temperature;BME280_humidity;BME280_pressure;Samples;Min_cycle;Max_cycle;Signal;HPM_P1;HPM_P2
2022/08/06 00:00:18;;;;;;;0.80;0.80;;;;;;;26.96;37.38;94920.66;5049780;28;20201;-68
2022/08/06 00:02:53;;;;;;;0.67;0.40;;;;;;;27.24;37.85;94914.97;5041419;28;20230;-66
2022/08/06 00:05:20;;;;;;;0.30;0.30;;;;;;;27.29;37.86;94917.38;5044661;28;20200;-68
2022/08/06 00:08:01;;;;;;;0.50;0.47;;;;;;;27.22;36.35;94901.09;5049503;28;20199;-67
2022/08/06 00:10:28;;;;;;;0.80;0.70;;;;;;;27.24;36.49;94914.97;5049445;28;20291;-67
2022/08/06 00:12:58;;;;;;;0.60;0.60;;;;;;;27.13;36.76;94920.19;5049061;28;20200;-68
2022/08/06 00:15:28;;;;;;;1.27;0.80;;;;;;;27.16;37.19;94921.38;5049114;28;20678;-69
2022/08/06 00:18:14;;;;;;;0.40;0.40;;;;;;;26.95;37.79;94927.94;5040746;28;20200;-66
2022/08/06 00:20:44;;;;;;;0.10;0.10;;;;;;;27.03;37.20;94921.56;5030847;28;20252;-67
2022/08/06 00:23:16;;;;;;;0.50;0.50;;;;;;;27.02;36.85;94928.06;5049547;28;20196;-66
2022/08/06 00:25:45;;;;;;;0.60;0.60;;;;;;;26.85;37.46;94920.47;5049223;28;20200;-68
2022/08/06 00:28:24;;;;;;;0.77;0.77;;;;;;;27.15;37.52;94923.31;5048464;28;20203;-68
2022/08/06 00:30:59;;;;;;;0.67;0.63;;;;;;;26.92;37.96;94927.88;5049070;28;20196;-67
2022/08/06 00:33:37;;;;;;;0.80;0.80;;;;;;;26.62;37.67;94930.38;5048146;28;20674;-68
2022/08/06 00:36:24;;;;;;;0.40;0.40;;;;;;;26.54;38.68;94926.00;5049577;28;20192;-68
2022/08/06 00:39:00;;;;;;;1.27;0.97;;;;;;;26.86;38.70;94921.25;5050338;28;20208;-68
2022/08/06 00:41:34;;;;;;;0.53;0.40;;;;;;;26.87;38.01;94928.97;5053545;28;20234;-69
2022/08/06 00:44:12;;;;;;;0.50;0.50;;;;;;;26.70;38.52;94923.25;5052998;28;20247;-67
2022/08/06 00:46:41;;;;;;;0.40;0.40;;;;;;;26.78;38.03;94928.41;5039377;28;20992;-67
2022/08/06 00:49:08;;;;;;;0.20;0.20;;;;;;;26.73;38.03;94917.94;5054078;28;20704;-68
2022/08/06 00:51:37;;;;;;;2.60;0.50;;;;;;;26.48;38.11;94930.09;5039525;28;20254;-68
2022/08/06 00:54:19;;;;;;;0.50;0.50;;;;;;;26.71;38.02;94925.59;5053501;28;20640;-68
2022/08/06 00:57:03;;;;;;;0.30;0.30;;;;;;;26.71;38.27;94930.97;5053506;28;20628;-67
2022/08/06 00:59:36;;;;;;;30.27;1.43;;;;;;;26.51;38.78;94913.28;5053186;28;20211;-68
2022/08/06 01:02:03;;;;;;;1.10;0.57;;;;;;;26.52;39.60;94932.84;5052598;28;20760;-67
2022/08/06 01:04:35;;;;;;;0.60;0.60;;;;;;;26.35;39.26;94928.69;5044533;28;20633;-68
2022/08/06 01:07:04;;;;;;;0.30;0.30;;;;;;;26.09;39.94;94925.09;5047541;28;20205;-69
2022/08/06 01:09:34;;;;;;;4.53;1.60;;;;;;;26.17;39.29;94929.47;5052704;28;20247;-68
2022/08/06 01:12:21;;;;;;;0.30;0.30;;;;;;;26.15;39.15;94924.44;5053278;28;20211;-69
2022/08/06 01:14:58;;;;;;;0.50;0.50;;;;;;;26.19;39.07;94924.50;5053021;28;20203;-68
2022/08/06 01:17:48;;;;;;;0.73;0.73;;;;;;;26.20;39.42;94918.81;5039812;28;20227;-67
2022/08/06 01:20:41;;;;;;;3.10;1.70;;;;;;;26.25;39.10;94913.16;5052498;28;20219;-68
2022/08/06 01:24:10;;;;;;;1.80;0.77;;;;;;;26.12;39.87;94922.47;5042610;28;20227;-68
2022/08/06 01:27:00;;;;;;;0.30;0.30;;;;;;;26.17;40.12;94921.44;5041237;28;20581;-67
2022/08/06 01:29:37;;;;;;;1.00;1.00;;;;;;;26.14;39.42;94927.47;5052640;28;20193;-67
2022/08/06 01:32:33;;;;;;;0.37;0.37;;;;;;;26.00;39.60;94914.53;5053191;28;20307;-67
2022/08/06 01:35:19;;;;;;;0.80;0.77;;;;;;;25.88;40.27;94917.31;5032570;28;20220;-68
2022/08/06 01:37:58;;;;;;;0.20;0.20;;;;;;;26.00;40.52;94922.56;5046142;28;20200;-68
2022/08/06 01:40:32;;;;;;;1.07;0.73;;;;;;;26.16;40.00;94923.31;5042257;28;20277;-67
2022/08/06 01:43:05;;;;;;;0.30;0.30;;;;;;;26.07;39.85;94912.00;5034797;28;20229;-66
2022/08/06 01:45:54;;;;;;;0.23;0.20;;;;;;;26.17;39.34;94908.75;5043403;28;20808;-67
2022/08/06 01:48:25;;;;;;;0.50;0.50;;;;;;;26.06;40.42;94921.19;5051927;28;20567;-68
2022/08/06 01:50:58;;;;;;;0.93;0.93;;;;;;;26.03;39.72;94911.13;5052188;28;20292;-69
2022/08/06 01:53:29;;;;;;;0.67;0.67;;;;;;;26.28;39.89;94911.66;5051962;28;20201;-68
2022/08/06 01:56:18;;;;;;;0.47;0.47;;;;;;;26.46;39.37;94908.19;5042420;28;20192;-69
2022/08/06 01:59:06;;;;;;;1.17;0.70;;;;;;;26.36;39.91;94908.75;5052699;28;20287;-68
2022/08/06 02:01:37;;;;;;;0.10;0.10;;;;;;;26.50;39.53;94909.03;5051744;28;20290;-68
2022/08/06 02:04:29;;;;;;;0.60;0.60;;;;;;;26.61;39.07;94907.31;5051793;28;20200;-67
2022/08/06 02:06:58;;;;;;;0.50;0.50;;;;;;;26.53;39.83;94902.94;5051772;28;20651;-67
2022/08/06 02:09:26;;;;;;;0.40;0.40;;;;;;;26.22;41.00;94897.75;5038666;28;20542;-67
2022/08/06 02:12:04;;;;;;;1.27;0.97;;;;;;;26.06;40.94;94899.69;5038146;28;20201;-67
2022/08/06 02:14:38;;;;;;;0.87;0.87;;;;;;;26.19;40.43;94893.06;5038100;28;20189;-68
2022/08/06 02:17:12;;;;;;;3.20;1.10;;;;;;;25.98;41.60;94895.28;5037311;28;20239;-67
2022/08/06 02:19:46;;;;;;;1.50;0.87;;;;;;;26.08;40.47;94886.69;5051846;28;20208;-67
2022/08/06 02:22:37;;;;;;;0.70;0.70;;;;;;;25.99;40.51;94894.16;5051006;28;20295;-68
2022/08/06 02:25:11;;;;;;;1.50;0.93;;;;;;;25.61;41.37;94892.19;5051364;28;20233;-67
2022/08/06 02:27:57;;;;;;;0.67;0.67;;;;;;;25.65;41.87;94870.81;5037492;28;20322;-67
2022/08/06 02:30:31;;;;;;;2.80;1.10;;;;;;;25.79;42.01;94879.16;5051486;28;20231;-66
2022/08/06 02:33:05;;;;;;;0.30;0.30;;;;;;;25.87;41.94;94892.41;5051237;28;20204;-65
2022/08/06 02:35:48;;;;;;;0.67;0.67;;;;;;;25.80;42.54;94881.47;5051398;28;20231;-67
2022/08/06 02:38:27;;;;;;;0.27;0.27;;;;;;;25.81;42.84;94893.00;5031553;28;20630;-68
2022/08/06 02:41:01;;;;;;;0.37;0.37;;;;;;;25.81;41.89;94882.25;5031216;28;20525;-67
2022/08/06 02:43:38;;;;;;;0.93;0.90;;;;;;;25.65;42.44;94876.16;5031015;28;20667;-68
2022/08/06 02:46:19;;;;;;;0.60;0.60;;;;;;;25.71;41.88;94891.63;5044621;28;20319;-66
2022/08/06 02:48:51;;;;;;;0.50;0.50;;;;;;;25.64;42.30;94885.34;5039325;28;20220;-68
2022/08/06 02:51:28;;;;;;;0.90;0.43;;;;;;;25.54;42.32;94897.41;5049346;28;20303;-66
2022/08/06 02:54:29;;;;;;;1.10;1.00;;;;;;;25.61;42.48;94888.72;5048219;28;20200;-67
2022/08/06 02:57:06;;;;;;;0.80;0.57;;;;;;;25.55;42.47;94890.13;5048889;28;20204;-67
2022/08/06 02:59:42;;;;;;;0.57;0.57;;;;;;;25.48;43.01;94895.31;5040025;28;20283;-68
2022/08/06 03:02:11;;;;;;;0.97;0.97;;;;;;;25.64;42.80;94904.13;5047211;28;20247;-68
2022/08/06 03:04:47;;;;;;;0.60;0.60;;;;;;;25.36;43.75;94904.25;5040434;28;20200;-70
2022/08/06 03:07:27;;;;;;;0.73;0.63;;;;;;;25.45;43.24;94902.19;5050695;28;20193;-67
2022/08/06 03:09:58;;;;;;;0.63;0.63;;;;;;;25.32;42.62;94889.97;5050474;28;20207;-69
2022/08/06 03:12:26;;;;;;;1.17;1.00;;;;;;;25.30;43.80;94915.56;5050548;28;20192;-66
2022/08/06 03:15:01;;;;;;;1.73;1.27;;;;;;;25.30;43.90;94915.56;5050760;28;20704;-67
2022/08/06 03:17:37;;;;;;;0.30;0.30;;;;;;;25.20;43.45;94910.75;5051217;28;20201;-67
2022/08/06 03:20:06;;;;;;;0.97;0.97;;;;;;;25.07;43.86;94913.50;5040183;28;20197;-68
2022/08/06 03:22:45;;;;;;;3.63;0.80;;;;;;;25.27;43.63;94911.69;5047954;28;20301;-65
2022/08/06 03:25:14;;;;;;;0.90;0.83;;;;;;;25.41;43.74;94911.25;5050619;28;20239;-68
2022/08/06 03:27:43;;;;;;;0.77;0.77;;;;;;;25.25;43.78;94915.84;5048952;28;20193;-68
2022/08/06 03:30:13;;;;;;;0.70;0.70;;;;;;;25.13;44.06;94915.94;5050007;28;20235;-68
2022/08/06 03:33:05;;;;;;;0.50;0.50;;;;;;;25.08;43.47;94909.72;5036005;28;20196;-67
2022/08/06 03:35:53;;;;;;;0.77;0.50;;;;;;;24.87;44.14;94914.53;5050362;28;20251;-69
2022/08/06 03:38:22;;;;;;;0.47;0.47;;;;;;;24.98;43.80;94910.22;5036655;28;20192;-68
2022/08/06 03:40:57;;;;;;;0.50;0.50;;;;;;;25.17;43.95;94916.78;5050506;28;20215;-66
2022/08/06 03:43:24;;;;;;;0.23;0.23;;;;;;;25.28;43.65;94915.13;5030124;28;20320;-66
2022/08/06 03:45:59;;;;;;;0.60;0.60;;;;;;;25.32;43.83;94913.31;5042576;28;20259;-68
2022/08/06 03:48:33;;;;;;;0.60;0.60;;;;;;;25.24;43.93;94901.66;5049744;28;20226;-66
2022/08/06 03:51:11;;;;;;;0.77;0.63;;;;;;;24.96;44.07;94906.34;5049618;28;20196;-66
2022/08/06 03:53:40;;;;;;;0.63;0.63;;;;;;;25.06;44.31;94911.94;5042102;28;20199;-69
2022/08/06 03:56:24;;;;;;;0.23;0.23;;;;;;;25.30;43.32;94912.88;5039574;28;20578;-67
2022/08/06 03:59:02;;;;;;;0.70;0.70;;;;;;;25.31;44.25;94922.50;5035414;28;20292;-68
2022/08/06 04:01:35;;;;;;;1.00;1.00;;;;;;;25.22;44.47;94916.53;5049592;28;20196;-68
2022/08/06 04:04:18;;;;;;;3.00;1.50;;;;;;;25.42;43.63;94923.56;5043567;28;20205;-66
2022/08/06 04:06:58;;;;;;;0.63;0.63;;;;;;;25.43;44.00;94923.22;5041578;28;20317;-67
2022/08/06 04:09:31;;;;;;;0.47;0.47;;;;;;;25.49;43.29;94919.13;5036472;28;20192;-66
2022/08/06 04:12:20;;;;;;;0.93;0.93;;;;;;;25.45;42.52;94933.59;5049237;28;20200;-67
2022/08/06 04:15:07;;;;;;;1.17;0.80;;;;;;;25.24;42.85;94933.03;5049242;28;20295;-66
2022/08/06 04:17:37;;;;;;;0.83;0.83;;;;;;;25.24;43.24;94935.72;5049540;28;20746;-68
2022/08/06 04:20:15;;;;;;;0.20;0.20;;;;;;;25.25;42.86;94918.53;5049393;28;20204;-67
2022/08/06 04:22:57;;;;;;;0.87;0.87;;;;;;;25.03;42.21;94934.09;5035164;28;20296;-68
2022/08/06 04:25:40;;;;;;;1.23;1.13;;;;;;;25.17;42.67;94932.88;5049929;28;20208;-66
2022/08/06 04:28:12;;;;;;;0.97;0.83;;;;;;;25.29;43.24;94936.25;5049576;28;20268;-66
2022/08/06 04:30:42;;;;;;;0.97;0.97;;;;;;;25.06;41.69;94938.75;5049854;28;20200;-68
2022/08/06 04:33:19;;;;;;;0.40;0.40;;;;;;;24.80;41.96;94911.66;5036030;28;20691;-68
2022/08/06 04:36:05;;;;;;;0.20;0.20;;;;;;;25.26;42.29;94941.53;5047704;28;20214;-67
2022/08/06 04:38:50;;;;;;;0.93;0.60;;;;;;;25.33;42.23;94937.09;5039807;28;20228;-66
2022/08/06 04:41:18;;;;;;;0.70;0.70;;;;;;;25.35;42.43;94945.59;5049575;28;22362;-68
2022/08/06 04:43:46;;;;;;;0.80;0.80;;;;;;;25.60;42.18;94946.22;5049116;28;20220;-68
2022/08/06 04:46:21;;;;;;;1.30;0.73;;;;;;;25.67;42.77;94949.06;5049177;28;20195;-69
2022/08/06 04:48:49;;;;;;;1.07;0.97;;;;;;;25.80;41.56;94950.53;5049280;28;20191;-66
2022/08/06 04:51:23;;;;;;;1.17;0.93;;;;;;;25.21;41.87;94949.84;5048983;28;20196;-66
2022/08/06 04:54:10;;;;;;;0.20;0.20;;;;;;;25.23;41.64;94948.38;5046228;28;20602;-66
2022/08/06 04:56:39;;;;;;;9.70;1.27;;;;;;;25.41;42.31;94948.81;5042679;28;20205;-68
2022/08/06 04:59:16;;;;;;;0.30;0.30;;;;;;;25.66;41.71;94952.84;5035744;28;20291;-67
2022/08/06 05:01:43;;;;;;;0.30;0.30;;;;;;;25.59;41.90;94958.06;5036000;28;20212;-68
2022/08/06 05:04:28;;;;;;;0.80;0.80;;;;;;;25.36;41.69;94957.09;5034701;28;20196;-67
2022/08/06 05:07:06;;;;;;;1.67;1.23;;;;;;;25.33;41.64;94960.50;5049545;28;20460;-67
2022/08/06 05:09:36;;;;;;;1.20;1.13;;;;;;;25.60;41.51;94956.97;5039482;28;20197;-66
2022/08/06 05:12:21;;;;;;;1.00;1.00;;;;;;;25.78;41.33;94966.19;5049626;28;20200;-66
2022/08/06 05:15:10;;;;;;;1.07;0.90;;;;;;;26.18;40.80;94955.97;5048875;28;20235;-70
2022/08/06 05:17:42;;;;;;;0.60;0.60;;;;;;;26.38;40.23;94960.25;5045311;28;20303;-67
2022/08/06 05:20:19;;;;;;;0.50;0.50;;;;;;;26.39;40.46;94961.00;5040381;28;20614;-70
2022/08/06 05:23:02;;;;;;;0.30;0.30;;;;;;;26.36;40.73;94959.81;5048783;28;20256;-67
2022/08/06 05:25:45;;;;;;;0.80;0.67;;;;;;;26.09;41.11;94952.72;5036958;28;20315;-68
2022/08/06 05:28:19;;;;;;;0.97;0.97;;;;;;;26.23;40.25;94958.38;5052473;28;20348;-67
2022/08/06 05:30:50;;;;;;;3.47;1.13;;;;;;;26.04;40.85;94958.34;5052316;28;20200;-68
2022/08/06 05:33:26;;;;;;;1.43;1.33;;;;;;;26.24;40.83;94954.56;5052231;28;20196;-66
2022/08/06 05:36:00;;;;;;;0.83;0.83;;;;;;;26.21;41.87;94960.63;5038431;28;20213;-68
2022/08/06 05:38:38;;;;;;;0.20;0.20;;;;;;;26.46;40.01;94959.22;5044524;28;20196;-69
2022/08/06 05:41:26;;;;;;;0.27;0.27;;;;;;;26.28;40.95;94960.78;5049848;28;21004;-68
2022/08/06 05:43:58;;;;;;;0.77;0.77;;;;;;;26.12;40.80;94962.75;5051971;28;20220;-67
2022/08/06 05:46:35;;;;;;;0.87;0.87;;;;;;;26.30;40.27;94947.78;5052221;28;20197;-67
2022/08/06 05:49:06;;;;;;;7.37;1.53;;;;;;;26.67;39.48;94962.34;5052346;28;20243;-69
2022/08/06 05:52:14;;;;;;;0.50;0.50;;;;;;;26.58;39.71;94964.47;5031922;28;20212;-66
2022/08/06 05:54:46;;;;;;;0.20;0.20;;;;;;;26.56;40.97;94955.22;5039130;28;20201;-67
2022/08/06 05:57:21;;;;;;;0.47;0.47;;;;;;;26.80;40.26;94958.41;5051809;28;20208;-68
2022/08/06 06:00:12;;;;;;;0.53;0.50;;;;;;;26.39;40.08;94959.09;5038665;28;20201;-67
2022/08/06 06:03:02;;;;;;;1.40;1.30;;;;;;;26.74;40.12;94959.84;5041066;28;20311;-67
2022/08/06 06:05:30;;;;;;;0.60;0.60;;;;;;;27.02;39.61;94951.50;5051592;28;20208;-66
2022/08/06 06:08:19;;;;;;;0.30;0.30;;;;;;;26.92;40.53;94947.50;5051807;28;20667;-67
2022/08/06 06:11:07;;;;;;;1.17;1.07;;;;;;;27.07;40.34;94945.03;5051530;28;20204;-68
2022/08/06 06:13:38;;;;;;;1.00;1.00;;;;;;;26.57;40.16;94935.28;5038828;28;20236;-66
2022/08/06 06:16:35;;;;;;;0.70;0.70;;;;;;;26.74;40.74;94949.06;5039641;28;20675;-67
2022/08/06 06:19:08;;;;;;;0.80;0.80;;;;;;;26.87;39.03;94945.09;5035970;28;20204;-67
2022/08/06 06:22:19;;;;;;;1.47;1.37;;;;;;;27.16;39.10;94953.66;5041052;28;20630;-67
2022/08/06 06:25:04;;;;;;;0.87;0.87;;;;;;;26.75;40.10;94942.56;5032022;28;20197;-66
2022/08/06 06:27:37;;;;;;;1.47;1.37;;;;;;;27.08;38.95;94949.31;5046481;28;20677;-68
2022/08/06 06:30:33;;;;;;;0.50;0.50;;;;;;;26.97;38.68;94949.88;5051664;28;20327;-69
2022/08/06 06:33:34;;;;;;;4.10;1.67;;;;;;;26.88;38.98;94925.13;5051141;28;20623;-66
2022/08/06 06:36:17;;;;;;;0.37;0.37;;;;;;;27.43;38.94;94939.13;5050670;28;20192;-67
2022/08/06 06:38:59;;;;;;;1.77;1.50;;;;;;;27.67;37.25;94933.38;5051016;28;20208;-68
2022/08/06 06:41:49;;;;;;;0.50;0.50;;;;;;;27.38;37.80;94932.16;5050853;28;20201;-67
2022/08/06 06:44:53;;;;;;;0.37;0.37;;;;;;;27.63;38.03;94927.16;5049342;28;20262;-67
2022/08/06 06:48:14;;;;;;;0.73;0.73;;;;;;;27.56;41.13;94932.44;5037594;28;20197;-66
2022/08/06 06:50:52;;;;;;;3.57;1.10;;;;;;;27.94;38.76;94926.84;5041675;28;20667;-67
2022/08/06 06:53:20;;;;;;;0.87;0.87;;;;;;;27.96;37.24;94908.41;5051180;28;20204;-70
2022/08/06 06:55:54;;;;;;;1.50;1.00;;;;;;;27.96;36.71;94919.19;5051410;28;20215;-67
2022/08/06 06:58:34;;;;;;;0.50;0.50;;;;;;;27.50;36.94;94923.88;5051274;28;20760;-66
2022/08/06 07:01:05;;;;;;;0.70;0.70;;;;;;;27.79;37.53;94927.78;5031284;28;20267;-67
2022/08/06 07:03:54;;;;;;;4.20;0.90;;;;;;;27.70;36.59;94917.25;5047281;28;20311;-67
2022/08/06 07:06:22;;;;;;;0.60;0.60;;;;;;;27.79;37.03;94914.34;5051012;28;20200;-68
2022/08/06 07:09:15;;;;;;;0.57;0.57;;;;;;;27.31;37.95;94920.50;5036522;28;20668;-67
2022/08/06 07:12:03;;;;;;;0.50;0.50;;;;;;;27.92;36.87;94913.75;5050635;28;20205;-67
2022/08/06 07:14:34;;;;;;;0.47;0.47;;;;;;;28.34;36.09;94913.53;5050813;28;20185;-68
2022/08/06 07:17:03;;;;;;;0.30;0.30;;;;;;;28.87;35.65;94909.53;5050726;28;20201;-69
2022/08/06 07:19:56;;;;;;;0.60;0.60;;;;;;;28.63;35.98;94904.66;5038772;28;20193;-65
2022/08/06 07:22:25;;;;;;;0.60;0.60;;;;;;;28.55;35.82;94889.56;5049946;28;20287;-66
2022/08/06 07:24:56;;;;;;;4.40;0.90;;;;;;;28.83;35.75;94897.16;5050550;28;20219;-66
2022/08/06 07:27:32;;;;;;;1.00;0.70;;;;;;;29.19;35.62;94887.50;5050738;28;20208;-67
2022/08/06 07:30:10;;;;;;;0.67;0.67;;;;;;;29.34;35.17;94887.22;5051790;28;20337;-66
2022/08/06 07:32:38;;;;;;;0.97;0.97;;;;;;;29.39;35.28;94886.09;5052312;28;20208;-66
2022/08/06 07:35:12;;;;;;;1.13;1.07;;;;;;;29.39;35.38;94886.88;5042544;28;20205;-68
2022/08/06 07:37:49;;;;;;;0.80;0.80;;;;;;;29.67;35.80;94870.84;5045892;28;20227;-66
2022/08/06 07:40:23;;;;;;;0.40;0.40;;;;;;;29.63;36.84;94880.88;5049405;28;20196;-66
2022/08/06 07:43:00;;;;;;;1.43;1.23;;;;;;;29.98;36.12;94882.28;5047394;28;20323;-67
2022/08/06 07:45:31;;;;;;;1.03;1.03;;;;;;;30.34;36.02;94882.09;5029376;28;20273;-66
2022/08/06 07:48:27;;;;;;;1.50;1.17;;;;;;;30.54;34.08;94880.59;5048183;28;20737;-69
2022/08/06 07:50:59;;;;;;;0.50;0.50;;;;;;;30.47;34.17;94860.88;5049944;28;20214;-68
2022/08/06 07:53:26;;;;;;;3.53;1.57;;;;;;;30.52;34.14;94860.50;5041707;28;20680;-68
2022/08/06 07:56:14;;;;;;;0.60;0.43;;;;;;;30.85;34.04;94879.94;5049781;28;20216;-67
2022/08/06 07:58:43;;;;;;;1.00;1.00;;;;;;;30.31;34.61;94877.41;5047470;28;20322;-67
2022/08/06 08:01:12;;;;;;;0.97;0.43;;;;;;;30.28;37.90;94870.06;5038507;28;20208;-66
2022/08/06 08:06:52;;;;;;;1.57;1.47;;;;;;;31.32;34.56;94875.31;5049683;28;20216;-67
2022/08/06 08:09:22;;;;;;;0.47;0.47;;;;;;;31.41;34.68;94873.00;5035324;28;20244;-67
2022/08/06 08:12:16;;;;;;;0.40;0.40;;;;;;;31.15;34.17;94873.38;5049482;28;20361;-68
2022/08/06 08:15:02;;;;;;;1.00;0.90;;;;;;;31.32;33.08;94870.66;5049853;28;20307;-68
2022/08/06 08:17:30;;;;;;;0.90;0.90;;;;;;;31.29;32.96;94859.84;5049636;28;20224;-66
2022/08/06 08:20:04;;;;;;;0.90;0.90;;;;;;;30.89;34.00;94867.16;5049852;28;20208;-69
2022/08/06 08:22:44;;;;;;;0.63;0.63;;;;;;;31.17;33.61;94879.19;5049292;28;20204;-65
2022/08/06 08:25:17;;;;;;;0.63;0.63;;;;;;;31.11;33.58;94869.91;5039147;28;20197;-68
2022/08/06 08:28:05;;;;;;;2.47;1.77;;;;;;;31.60;34.44;94869.91;5043271;28;20286;-66
2022/08/06 08:30:41;;;;;;;0.60;0.60;;;;;;;31.95;32.45;94872.59;5042490;28;20200;-68
2022/08/06 08:33:09;;;;;;;0.60;0.60;;;;;;;31.83;32.40;94872.94;5049472;28;20195;-66
2022/08/06 08:35:44;;;;;;;1.23;0.70;;;;;;;31.83;32.03;94867.53;5049419;28;20192;-66
2022/08/06 08:38:30;;;;;;;1.00;1.00;;;;;;;32.05;32.18;94863.63;5042350;28;20613;-65
2022/08/06 08:41:04;;;;;;;1.07;1.07;;;;;;;32.22;31.99;94865.50;5043242;28;20715;-68
2022/08/06 08:43:43;;;;;;;1.63;1.53;;;;;;;32.20;32.59;94865.13;5036206;28;20665;-66
2022/08/06 08:46:37;;;;;;;1.20;1.07;;;;;;;32.43;30.57;94865.44;5045660;28;20578;-66
2022/08/06 08:49:28;;;;;;;0.60;0.60;;;;;;;32.81;29.32;94859.03;5041728;28;20299;-65
2022/08/06 08:51:56;;;;;;;1.03;1.03;;;;;;;33.09;29.99;94855.38;5035170;28;20254;-67
2022/08/06 08:54:26;;;;;;;0.40;0.40;;;;;;;33.27;29.59;94855.22;5049095;28;20593;-68
2022/08/06 08:56:53;;;;;;;0.97;0.97;;;;;;;32.88;31.40;94860.16;5048580;28;20286;-67
2022/08/06 08:59:41;;;;;;;0.97;0.90;;;;;;;32.95;28.50;94860.13;5047615;28;20287;-66
2022/08/06 09:02:26;;;;;;;9.03;7.23;;;;;;;33.08;28.56;94853.84;5053111;28;20193;-66
2022/08/06 09:04:54;;;;;;;0.90;0.90;;;;;;;33.14;27.69;94846.03;5046283;28;20263;-64
2022/08/06 09:07:26;;;;;;;0.80;0.80;;;;;;;33.07;27.58;94849.56;5053124;28;20200;-66
2022/08/06 09:10:07;;;;;;;0.73;0.73;;;;;;;33.45;27.77;94847.75;5062103;28;20204;-66
2022/08/06 09:12:39;;;;;;;3.17;1.70;;;;;;;33.49;29.01;94845.75;5063874;28;20293;-66
2022/08/06 09:15:14;;;;;;;0.77;0.77;;;;;;;33.31;27.83;94842.38;5031666;28;20201;-68
2022/08/06 09:17:45;;;;;;;0.70;0.70;;;;;;;33.50;26.91;94847.31;5045169;28;20274;-64
2022/08/06 09:20:34;;;;;;;0.40;0.40;;;;;;;33.65;26.89;94841.31;5034975;28;20229;-67
2022/08/06 09:23:01;;;;;;;1.40;0.70;;;;;;;33.73;26.04;94840.09;5032755;28;20726;-70
2022/08/06 09:25:39;;;;;;;0.67;0.67;;;;;;;33.93;26.44;94837.53;5032592;28;20295;-70
2022/08/06 09:28:31;;;;;;;2.23;2.03;;;;;;;34.13;26.29;94841.22;5048130;28;20519;-67
2022/08/06 09:31:19;;;;;;;0.70;0.70;;;;;;;34.42;26.99;94836.97;5044646;28;20288;-67
2022/08/06 09:34:02;;;;;;;0.97;0.97;;;;;;;34.34;25.99;94815.72;5038657;28;20197;-66
2022/08/06 09:36:50;;;;;;;0.67;0.67;;;;;;;34.48;26.81;94829.91;5049025;28;20220;-69
2022/08/06 09:39:40;;;;;;;0.50;0.50;;;;;;;34.56;28.44;94825.16;5033445;28;20208;-66
2022/08/06 09:42:42;;;;;;;0.73;0.50;;;;;;;34.45;27.08;94821.81;5040667;28;20582;-64
2022/08/06 09:45:13;;;;;;;6.90;1.33;;;;;;;34.63;26.18;94825.84;5047178;28;20331;-65
2022/08/06 09:47:59;;;;;;;0.70;0.70;;;;;;;34.60;26.00;94831.31;5046889;28;20197;-67
2022/08/06 09:50:38;;;;;;;0.77;0.77;;;;;;;34.48;26.88;94827.19;5047852;28;20676;-66
2022/08/06 09:53:09;;;;;;;4.67;2.23;;;;;;;34.60;26.97;94821.19;5043348;28;20205;-65
2022/08/06 09:55:41;;;;;;;0.87;0.83;;;;;;;34.97;26.48;94833.13;5046738;28;20201;-65
2022/08/06 09:58:08;;;;;;;0.30;0.30;;;;;;;34.67;26.95;94825.78;5043123;28;20197;-65
2022/08/06 10:00:37;;;;;;;0.77;0.77;;;;;;;34.86;26.68;94827.03;5032952;28;20326;-63
2022/08/06 10:03:07;;;;;;;0.50;0.50;;;;;;;34.68;27.25;94817.19;5034019;28;20201;-64
2022/08/06 10:06:05;;;;;;;1.70;1.60;;;;;;;35.25;25.06;94819.06;5052435;28;20190;-66
2022/08/06 10:08:38;;;;;;;1.53;1.43;;;;;;;35.09;24.50;94816.97;5050676;28;20208;-66
2022/08/06 10:11:06;;;;;;;0.40;0.40;;;;;;;35.44;25.21;94810.97;5035925;28;20195;-65
2022/08/06 10:13:34;;;;;;;1.10;1.03;;;;;;;35.02;24.62;94808.91;5037243;28;20201;-65
2022/08/06 10:16:17;;;;;;;66.13;31.83;;;;;;;35.58;26.22;94812.69;5033788;28;20659;-66
2022/08/06 10:18:49;;;;;;;3.40;2.40;;;;;;;35.53;25.00;94804.97;5043919;28;20203;-65
2022/08/06 10:21:26;;;;;;;4.47;2.33;;;;;;;35.92;25.31;94794.16;5037587;28;20204;-64
2022/08/06 10:24:10;;;;;;;0.77;0.77;;;;;;;35.96;24.13;94808.47;5044925;28;20273;-65
2022/08/06 10:26:37;;;;;;;0.50;0.50;;;;;;;35.86;24.59;94805.94;5050367;28;20266;-65
2022/08/06 10:29:11;;;;;;;0.57;0.57;;;;;;;36.15;24.55;94796.78;5033675;28;20247;-64
2022/08/06 10:31:41;;;;;;;0.53;0.53;;;;;;;36.17;23.95;94790.94;5045400;28;20193;-66
2022/08/06 10:34:10;;;;;;;0.63;0.63;;;;;;;36.04;24.39;94800.94;5030301;28;20192;-65
2022/08/06 10:36:44;;;;;;;0.60;0.60;;;;;;;35.92;23.66;94796.09;5036705;28;20291;-66
2022/08/06 10:39:15;;;;;;;0.77;0.77;;;;;;;35.89;24.52;94797.72;5033320;28;20687;-66
2022/08/06 10:42:03;;;;;;;0.40;0.40;;;;;;;35.80;24.41;94796.69;5034311;28;20220;-65
2022/08/06 10:44:49;;;;;;;8.30;3.53;;;;;;;35.54;25.69;94801.06;5043638;28;20290;-66
2022/08/06 10:47:17;;;;;;;9.23;5.43;;;;;;;35.97;24.50;94795.63;5040006;28;20291;-64
2022/08/06 10:50:04;;;;;;;1.97;1.43;;;;;;;35.46;25.32;94788.75;5048434;28;20196;-66
2022/08/06 10:52:52;;;;;;;1.60;1.00;;;;;;;35.71;25.28;94789.09;5045911;28;20299;-66
2022/08/06 10:55:21;;;;;;;0.57;0.50;;;;;;;35.91;25.88;94787.16;5041208;28;20231;-65
2022/08/06 10:57:49;;;;;;;7.23;0.80;;;;;;;36.02;24.90;94776.03;5036923;28;20709;-66
2022/08/06 11:00:19;;;;;;;1.20;1.10;;;;;;;36.34;23.51;94776.91;5035993;28;20205;-66
2022/08/06 11:03:00;;;;;;;2.77;0.80;;;;;;;36.48;23.44;94790.25;5038898;28;20296;-66
2022/08/06 11:05:37;;;;;;;1.30;0.93;;;;;;;36.95;23.23;94773.63;5047064;28;20188;-66
2022/08/06 11:08:36;;;;;;;6.90;0.73;;;;;;;36.69;23.82;94774.59;5039684;28;20231;-65
2022/08/06 11:11:51;;;;;;;1.27;0.70;;;;;;;36.70;24.00;94781.59;5039314;28;20205;-68
2022/08/06 11:14:36;;;;;;;0.73;0.73;;;;;;;37.08;22.72;94779.94;5033580;28;20224;-66
2022/08/06 11:17:05;;;;;;;0.63;0.63;;;;;;;36.70;21.45;94767.94;5044422;28;20688;-65
2022/08/06 11:19:39;;;;;;;0.97;0.60;;;;;;;36.02;21.99;94770.56;5045362;28;20192;-65
2022/08/06 11:22:39;;;;;;;1.33;1.23;;;;;;;36.34;23.06;94773.38;5035196;28;20201;-66
2022/08/06 11:25:44;;;;;;;0.53;0.53;;;;;;;36.85;22.57;94760.97;5047733;28;20248;-63
2022/08/06 11:28:14;;;;;;;2.63;2.13;;;;;;;36.55;22.54;94765.53;5047500;28;20204;-64
2022/08/06 11:30:44;;;;;;;1.77;1.67;;;;;;;36.60;22.27;94765.03;5049971;28;20231;-68
2022/08/06 11:33:38;;;;;;;0.47;0.47;;;;;;;36.08;23.18;94775.09;5049719;28;20245;-63
2022/08/06 11:36:09;;;;;;;2.30;2.00;;;;;;;35.87;24.15;94780.19;5046575;28;20745;-65
2022/08/06 11:38:43;;;;;;;1.00;0.90;;;;;;;35.29;24.28;94778.91;5038721;28;20817;-65
2022/08/06 11:41:33;;;;;;;5.57;1.53;;;;;;;35.63;23.64;94776.75;5036058;28;20201;-67
2022/08/06 11:44:21;;;;;;;0.93;0.93;;;;;;;35.66;23.43;94775.91;5049727;28;20244;-67
2022/08/06 11:47:16;;;;;;;0.37;0.37;;;;;;;35.49;23.33;94772.31;5030238;28;20254;-66
2022/08/06 11:49:50;;;;;;;0.97;0.87;;;;;;;35.66;23.42;94776.69;5046933;28;20204;-65
2022/08/06 11:52:33;;;;;;;1.80;1.13;;;;;;;35.60;23.62;94777.59;5049905;28;20751;-64
2022/08/06 11:55:15;;;;;;;2.50;1.33;;;;;;;35.48;22.98;94770.81;5049927;28;20671;-66
2022/08/06 11:58:19;;;;;;;0.73;0.30;;;;;;;35.86;24.24;94773.97;5049675;28;20598;-66
2022/08/06 12:01:01;;;;;;;0.70;0.70;;;;;;;35.94;23.84;94764.50;5035541;28;20292;-65
2022/08/06 12:03:39;;;;;;;0.93;0.93;;;;;;;36.07;23.56;94757.22;5049819;28;20263;-65
2022/08/06 12:06:26;;;;;;;1.37;1.27;;;;;;;35.75;24.12;94751.59;5037231;28;20659;-65
2022/08/06 12:09:12;;;;;;;2.10;1.90;;;;;;;36.48;23.56;94754.00;5035802;28;20196;-65
2022/08/06 12:12:25;;;;;;;1.03;1.00;;;;;;;36.20;24.33;94760.84;5050207;28;20219;-64
2022/08/06 12:14:58;;;;;;;24.83;6.20;;;;;;;36.02;23.18;94752.25;5038663;28;20473;-66
2022/08/06 12:17:32;;;;;;;1.53;1.20;;;;;;;35.97;23.33;94752.72;5046507;28;20201;-66
2022/08/06 12:20:41;;;;;;;3.30;1.47;;;;;;;35.60;23.52;94745.63;5042120;28;20203;-64
2022/08/06 12:23:15;;;;;;;2.23;1.87;;;;;;;35.35;22.73;94741.81;5037551;28;20192;-64
2022/08/06 12:25:47;;;;;;;1.63;1.37;;;;;;;35.62;22.43;94753.44;5049323;28;20320;-65
2022/08/06 12:28:17;;;;;;;0.80;0.80;;;;;;;35.73;23.83;94747.75;5036863;28;20257;-65
2022/08/06 12:30:52;;;;;;;3.63;3.00;;;;;;;35.75;24.69;94739.94;5049264;28;20664;-68